sensor_id;sensor_type;location;lat;lon;timestamp;pressure;altitude;pressure_sealevel;temperature;humidity
27294;BME280;14785;52.556;13.430;2022-10-19T00:00:23;101780.78;;;12.79;100.00
27294;BME280;14785;52.556;13.430;2022-10-19T00:02:48;101783.63;;;13.23;100.00
27294;BME280;14785;52.556;13.430;2022-10-19T00:05:14;101780.25;;;12.66;100.00
27294;BME280;14785;52.556;13.430;2022-10-19T00:07:39;101774.91;;;12.66;100.00
27294;BME280;14785;52.556;13.430;2022-10-19T00:10:05;101773.75;;;12.78;100.00
27294;BME280;14785;52.556;13.430;2022-10-19T00:12:30;101781.63;;;12.70;100.00
27294;BME280;14785;52.556;13.430;2022-10-19T00:14:55;101779.53;;;12.73;100.00
27294;BME280;14785;52.556;13.430;2022-10-19T00:17:21;101774.34;;;12.53;100.00
27294;BME280;14785;52.556;13.430;2022-10-19T00:19:46;101773.94;;;12.48;100.00
27294;BME280;14785;52.556;13.430;2022-10-19T00:22:12;101767.06;;;12.36;100.00
27294;BME280;14785;52.556;13.430;2022-10-19T00:24:40;101771.28;;;12.29;100.00
27294;BME280;14785;52.556;13.430;2022-10-19T00:27:05;101770.69;;;12.44;100.00
27294;BME280;14785;52.556;13.430;2022-10-19T00:29:31;101779.69;;;12.43;100.00
27294;BME280;14785;52.556;13.430;2022-10-19T00:31:56;101774.34;;;12.53;100.00
27294;BME280;14785;52.556;13.430;2022-10-19T00:34:22;101778.00;;;12.33;100.00
27294;BME280;14785;52.556;13.430;2022-10-19T00:36:47;101776.34;;;12.32;100.00
27294;BME280;14785;52.556;13.430;2022-10-19T00:39:14;101779.13;;;12.40;100.00
27294;BME280;14785;52.556;13.430;2022-10-19T00:41:41;101779.97;;;12.31;100.00
27294;BME280;14785;52.556;13.430;2022-10-19T00:47:00;101781.94;;;12.29;100.00
27294;BME280;14785;52.556;13.430;2022-10-19T00:49:36;101783.06;;;12.36;100.00
27294;BME280;14785;52.556;13.430;2022-10-19T00:52:07;101785.19;;;12.42;100.00
27294;BME280;14785;52.556;13.430;2022-10-19T00:54:36;101789.94;;;12.48;100.00
27294;BME280;14785;52.556;13.430;2022-10-19T00:57:03;101789.38;;;12.44;100.00
27294;BME280;14785;52.556;13.430;2022-10-19T00:59:29;101791.19;;;12.44;100.00
27294;BME280;14785;52.556;13.430;2022-10-19T01:01:55;101786.44;;;12.57;100.00
27294;BME280;14785;52.556;13.430;2022-10-19T01:04:22;101791.47;;;12.50;100.00
27294;BME280;14785;52.556;13.430;2022-10-19T01:06:49;101781.09;;;12.57;100.00
27294;BME280;14785;52.556;13.430;2022-10-19T01:09:14;101779.09;;;12.68;100.00
27294;BME280;14785;52.556;13.430;2022-10-19T01:12:06;101763.66;;;12.72;100.00
27294;BME280;14785;52.556;13.430;2022-10-19T01:20:06;101765.44;;;13.00;100.00
27294;BME280;14785;52.556;13.430;2022-10-19T01:25:51;101747.28;;;12.94;100.00
27294;BME280;14785;52.556;13.430;2022-10-19T01:33:53;101748.44;;;12.82;100.00
27294;BME280;14785;52.556;13.430;2022-10-19T01:39:24;101742.25;;;12.91;100.00
27294;BME280;14785;52.556;13.430;2022-10-19T01:44:27;101745.59;;;13.02;100.00
27294;BME280;14785;52.556;13.430;2022-10-19T01:47:03;101746.34;;;12.76;100.00
27294;BME280;14785;52.556;13.430;2022-10-19T01:52:18;101739.44;;;12.83;100.00
27294;BME280;14785;52.556;13.430;2022-10-19T01:54:51;101748.56;;;12.90;100.00
27294;BME280;14785;52.556;13.430;2022-10-19T01:57:24;101737.44;;;13.04;100.00
27294;BME280;14785;52.556;13.430;2022-10-19T01:59:51;101747.28;;;12.94;100.00
27294;BME280;14785;52.556;13.430;2022-10-19T02:02:19;101736.28;;;13.16;100.00
27294;BME280;14785;52.556;13.430;2022-10-19T02:04:44;101733.50;;;13.08;100.00
27294;BME280;14785;52.556;13.430;2022-10-19T02:07:11;101735.97;;;13.19;100.00
27294;BME280;14785;52.556;13.430;2022-10-19T02:09:36;101733.56;;;12.70;100.00
27294;BME280;14785;52.556;13.430;2022-10-19T02:12:07;101738.28;;;12.95;100.00
27294;BME280;14785;52.556;13.430;2022-10-19T02:14:38;101731.91;;;12.50;100.00
27294;BME280;14785;52.556;13.430;2022-10-19T02:17:08;101739.50;;;12.54;100.00
27294;BME280;14785;52.556;13.430;2022-10-19T02:19:35;101738.13;;;12.31;100.00
27294;BME280;14785;52.556;13.430;2022-10-19T02:22:01;101730.78;;;12.62;100.00
27294;BME280;14785;52.556;13.430;2022-10-19T02:24:26;101727.31;;;12.33;100.00
27294;BME280;14785;52.556;13.430;2022-10-19T02:26:52;101737.56;;;12.28;100.00
27294;BME280;14785;52.556;13.430;2022-10-19T02:29:17;101744.31;;;12.32;100.00
27294;BME280;14785;52.556;13.430;2022-10-19T02:31:43;101744.00;;;12.54;100.00
27294;BME280;14785;52.556;13.430;2022-10-19T02:34:10;101749.94;;;12.29;100.00
27294;BME280;14785;52.556;13.430;2022-10-19T02:36:35;101748.78;;;12.60;100.00
27294;BME280;14785;52.556;13.430;2022-10-19T02:39:01;101769.16;;;12.42;100.00
27294;BME280;14785;52.556;13.430;2022-10-19T02:41:44;101739.50;;;12.64;100.00
27294;BME280;14785;52.556;13.430;2022-10-19T02:44:18;101744.53;;;12.67;100.00
27294;BME280;14785;52.556;13.430;2022-10-19T02:46:48;101738.09;;;12.60;100.00
27294;BME280;14785;52.556;13.430;2022-10-19T02:49:15;101740.00;;;12.96;100.00
27294;BME280;14785;52.556;13.430;2022-10-19T02:51:56;101743.13;;;12.72;100.00
27294;BME280;14785;52.556;13.430;2022-10-19T02:54:22;101744.56;;;12.38;100.00
27294;BME280;14785;52.556;13.430;2022-10-19T02:56:48;101749.09;;;12.28;100.00
27294;BME280;14785;52.556;13.430;2022-10-19T02:59:13;101741.31;;;12.63;100.00
27294;BME280;14785;52.556;13.430;2022-10-19T03:01:39;101745.09;;;12.70;100.00
27294;BME280;14785;52.556;13.430;2022-10-19T03:04:04;101746.41;;;12.57;100.00
27294;BME280;14785;52.556;13.430;2022-10-19T03:06:29;101746.41;;;12.57;100.00
27294;BME280;14785;52.556;13.430;2022-10-19T03:08:55;101748.63;;;12.61;100.00
27294;BME280;14785;52.556;13.430;2022-10-19T03:11:20;101746.06;;;12.69;100.00
27294;BME280;14785;52.556;13.430;2022-10-19T03:13:45;101750.41;;;12.80;100.00
27294;BME280;14785;52.556;13.430;2022-10-19T03:16:12;101748.50;;;12.25;100.00
27294;BME280;14785;52.556;13.430;2022-10-19T03:18:38;101748.53;;;12.34;100.00
27294;BME280;14785;52.556;13.430;2022-10-19T03:21:06;101749.34;;;12.54;100.00
27294;BME280;14785;52.556;13.430;2022-10-19T03:23:32;101750.22;;;12.26;100.00
27294;BME280;14785;52.556;13.430;2022-10-19T03:25:57;101747.81;;;12.42;100.00
27294;BME280;14785;52.556;13.430;2022-10-19T03:28:23;101752.00;;;12.54;100.00
27294;BME280;14785;52.556;13.430;2022-10-19T03:30:48;101754.69;;;12.35;100.00
27294;BME280;14785;52.556;13.430;2022-10-19T03:33:13;101760.47;;;12.30;100.00
27294;BME280;14785;52.556;13.430;2022-10-19T03:35:39;101758.47;;;12.32;100.00
27294;BME280;14785;52.556;13.430;2022-10-19T03:38:04;101761.84;;;12.25;100.00
27294;BME280;14785;52.556;13.430;2022-10-19T03:40:29;101761.56;;;12.47;100.00
27294;BME280;14785;52.556;13.430;2022-10-19T03:42:54;101760.88;;;12.26;100.00
27294;BME280;14785;52.556;13.430;2022-10-19T03:45:20;101769.56;;;12.66;100.00
27294;BME280;14785;52.556;13.430;2022-10-19T03:47:49;101759.72;;;12.38;100.00
27294;BME280;14785;52.556;13.430;2022-10-19T03:50:14;101777.44;;;12.39;100.00
27294;BME280;14785;52.556;13.430;2022-10-19T03:52:41;101773.78;;;12.21;100.00
27294;BME280;14785;52.556;13.430;2022-10-19T03:55:07;101776.34;;;12.32;100.00
27294;BME280;14785;52.556;13.430;2022-10-19T03:57:32;101777.19;;;12.23;100.00
27294;BME280;14785;52.556;13.430;2022-10-19T03:59:57;101772.25;;;12.37;100.00
27294;BME280;14785;52.556;13.430;2022-10-19T04:02:23;101775.47;;;12.50;100.00
27294;BME280;14785;52.556;13.430;2022-10-19T04:04:48;101777.72;;;12.36;100.00
27294;BME280;14785;52.556;13.430;2022-10-19T04:07:13;101785.56;;;12.56;100.00
27294;BME280;14785;52.556;13.430;2022-10-19T04:09:39;101774.03;;;12.75;100.00
27294;BME280;14785;52.556;13.430;2022-10-19T04:12:04;101781.38;;;12.54;100.00
27294;BME280;14785;52.556;13.430;2022-10-19T04:14:29;101788.09;;;12.48;100.00
27294;BME280;14785;52.556;13.430;2022-10-19T04:16:55;101786.84;;;12.33;100.00
27294;BME280;14785;52.556;13.430;2022-10-19T04:19:20;101789.50;;;12.05;100.00
27294;BME280;14785;52.556;13.430;2022-10-19T04:21:47;101795.13;;;12.11;100.00
27294;BME280;14785;52.556;13.430;2022-10-19T04:24:16;101791.06;;;12.17;100.00
27294;BME280;14785;52.556;13.430;2022-10-19T04:26:44;101793.56;;;12.47;100.00
27294;BME280;14785;52.556;13.430;2022-10-19T04:29:10;101803.28;;;12.67;100.00
27294;BME280;14785;52.556;13.430;2022-10-19T04:31:36;101796.50;;;12.82;100.00
27294;BME280;14785;52.556;13.430;2022-10-19T04:34:02;101793.69;;;12.74;100.00
27294;BME280;14785;52.556;13.430;2022-10-19T04:36:27;101793.75;;;12.36;100.00
27294;BME280;14785;52.556;13.430;2022-10-19T04:38:52;101799.88;;;12.65;100.00
27294;BME280;14785;52.556;13.430;2022-10-19T04:41:20;101796.13;;;12.67;100.00
27294;BME280;14785;52.556;13.430;2022-10-19T04:43:46;101803.56;;;12.64;100.00
27294;BME280;14785;52.556;13.430;2022-10-19T04:46:13;101804.53;;;12.44;100.00
27294;BME280;14785;52.556;13.430;2022-10-19T04:48:39;101805.69;;;12.32;100.00
27294;BME280;14785;52.556;13.430;2022-10-19T04:51:06;101810.41;;;12.00;100.00
27294;BME280;14785;52.556;13.430;2022-10-19T04:53:32;101811.13;;;12.21;100.00
27294;BME280;14785;52.556;13.430;2022-10-19T04:55:57;101810.88;;;12.24;100.00
27294;BME280;14785;52.556;13.430;2022-10-19T04:58:23;101816.75;;;12.18;100.00
27294;BME280;14785;52.556;13.430;2022-10-19T05:00:48;101809.47;;;12.20;100.00
27294;BME280;14785;52.556;13.430;2022-10-19T05:03:14;101815.91;;;12.27;100.00
27294;BME280;14785;52.556;13.430;2022-10-19T05:05:40;101817.59;;;12.18;100.00
27294;BME280;14785;52.556;13.430;2022-10-19T05:08:05;101832.19;;;12.24;100.00
27294;BME280;14785;52.556;13.430;2022-10-19T05:10:30;101828.53;;;12.06;100.00
27294;BME280;14785;52.556;13.430;2022-10-19T05:12:56;101836.81;;;12.12;100.00
27294;BME280;14785;52.556;13.430;2022-10-19T05:15:21;101824.19;;;12.05;100.00
27294;BME280;14785;52.556;13.430;2022-10-19T05:17:47;101841.13;;;11.94;100.00
27294;BME280;14785;52.556;13.430;2022-10-19T05:20:12;101838.19;;;11.97;100.00
27294;BME280;14785;52.556;13.430;2022-10-19T05:22:38;101835.69;;;12.15;100.00
27294;BME280;14785;52.556;13.430;2022-10-19T05:25:04;101830.13;;;11.78;100.00
27294;BME280;14785;52.556;13.430;2022-10-19T05:27:30;101835.56;;;11.67;100.00
27294;BME280;14785;52.556;13.430;2022-10-19T05:29:55;101830.44;;;11.85;100.00
27294;BME280;14785;52.556;13.430;2022-10-19T05:32:21;101852.19;;;11.59;100.00
27294;BME280;14785;52.556;13.430;2022-10-19T05:34:46;101842.38;;;11.60;100.00
27294;BME280;14785;52.556;13.430;2022-10-19T05:37:11;101839.06;;;11.68;100.00
27294;BME280;14785;52.556;13.430;2022-10-19T05:39:37;101839.25;;;11.76;100.00
27294;BME280;14785;52.556;13.430;2022-10-19T05:42:02;101844.72;;;11.74;100.00
27294;BME280;14785;52.556;13.430;2022-10-19T05:44:27;101844.34;;;11.88;100.00
27294;BME280;14785;52.556;13.430;2022-10-19T05:46:53;101842.50;;;11.89;100.00
27294;BME280;14785;52.556;13.430;2022-10-19T05:49:19;101847.09;;;12.17;100.00
27294;BME280;14785;52.556;13.430;2022-10-19T05:51:45;101855.53;;;12.31;100.00
27294;BME280;14785;52.556;13.430;2022-10-19T05:54:11;101850.41;;;12.00;100.00
27294;BME280;14785;52.556;13.430;2022-10-19T05:56:37;101845.97;;;12.29;100.00
27294;BME280;14785;52.556;13.430;2022-10-19T05:59:05;101843.25;;;12.10;100.00
27294;BME280;14785;52.556;13.430;2022-10-19T06:01:32;101844.50;;;11.96;100.00
27294;BME280;14785;52.556;13.430;2022-10-19T06:03:58;101850.03;;;12.14;100.00
27294;BME280;14785;52.556;13.430;2022-10-19T06:06:25;101856.25;;;11.84;100.00
27294;BME280;14785;52.556;13.430;2022-10-19T06:08:51;101858.09;;;11.84;100.00
27294;BME280;14785;52.556;13.430;2022-10-19T06:11:19;101855.09;;;12.17;100.00
27294;BME280;14785;52.556;13.430;2022-10-19T06:13:46;101862.19;;;11.97;100.00
27294;BME280;14785;52.556;13.430;2022-10-19T06:16:13;101862.78;;;12.10;100.00
27294;BME280;14785;52.556;13.430;2022-10-19T06:18:39;101861.66;;;12.13;100.00
27294;BME280;14785;52.556;13.430;2022-10-19T06:21:06;101861.78;;;12.02;100.00
27294;BME280;14785;52.556;13.430;2022-10-19T06:23:32;101873.09;;;11.85;100.00
27294;BME280;14785;52.556;13.430;2022-10-19T06:26:04;101868.75;;;11.84;100.00
27294;BME280;14785;52.556;13.430;2022-10-19T06:28:30;101866.34;;;11.81;100.00
27294;BME280;14785;52.556;13.430;2022-10-19T06:30:57;101868.34;;;11.98;100.00
27294;BME280;14785;52.556;13.430;2022-10-19T06:33:22;101870.09;;;12.18;100.00
27294;BME280;14785;52.556;13.430;2022-10-19T06:35:47;101871.22;;;12.25;100.00
27294;BME280;14785;52.556;13.430;2022-10-19T06:38:13;101867.91;;;12.61;100.00
27294;BME280;14785;52.556;13.430;2022-10-19T06:40:38;101866.44;;;12.19;100.00
27294;BME280;14785;52.556;13.430;2022-10-19T06:43:03;101867.34;;;12.48;100.00
27294;BME280;14785;52.556;13.430;2022-10-19T06:45:29;101867.56;;;12.16;100.00
27294;BME280;14785;52.556;13.430;2022-10-19T06:47:54;101864.66;;;12.38;100.00
27294;BME280;14785;52.556;13.430;2022-10-19T06:50:19;101863.56;;;11.92;100.00
27294;BME280;14785;52.556;13.430;2022-10-19T06:52:45;101866.56;;;12.08;100.00
27294;BME280;14785;52.556;13.430;2022-10-19T06:55:11;101881.09;;;11.85;100.00
27294;BME280;14785;52.556;13.430;2022-10-19T06:57:37;101872.28;;;11.94;100.00
27294;BME280;14785;52.556;13.430;2022-10-19T07:00:04;101880.72;;;11.99;100.00
27294;BME280;14785;52.556;13.430;2022-10-19T07:02:29;101886.06;;;11.99;100.00
27294;BME280;14785;52.556;13.430;2022-10-19T07:04:55;101880.50;;;12.21;100.00
27294;BME280;14785;52.556;13.430;2022-10-19T07:07:20;101881.69;;;11.98;100.00
27294;BME280;14785;52.556;13.430;2022-10-19T07:09:47;101889.50;;;12.20;100.00
27294;BME280;14785;52.556;13.430;2022-10-19T07:12:12;101889.81;;;12.55;100.00
27294;BME280;14785;52.556;13.430;2022-10-19T07:14:37;101891.75;;;12.53;100.00
27294;BME280;14785;52.556;13.430;2022-10-19T07:17:07;101897.50;;;12.20;100.00
27294;BME280;14785;52.556;13.430;2022-10-19T07:19:34;101901.78;;;12.02;100.00
27294;BME280;14785;52.556;13.430;2022-10-19T07:21:59;101903.81;;;12.38;100.00
27294;BME280;14785;52.556;13.430;2022-10-19T07:24:24;101909.94;;;12.10;100.00
27294;BME280;14785;52.556;13.430;2022-10-19T07:26:50;101902.72;;;12.40;100.00
27294;BME280;14785;52.556;13.430;2022-10-19T07:29:15;101916.66;;;12.72;100.00
27294;BME280;14785;52.556;13.430;2022-10-19T07:31:41;101921.19;;;13.19;100.00
27294;BME280;14785;52.556;13.430;2022-10-19T07:34:10;101920.06;;;13.03;100.00
27294;BME280;14785;52.556;13.430;2022-10-19T07:36:35;101916.22;;;13.34;100.00
27294;BME280;14785;52.556;13.430;2022-10-19T07:39:02;101906.97;;;13.19;100.00
27294;BME280;14785;52.556;13.430;2022-10-19T07:41:29;101918.22;;;12.94;100.00
27294;BME280;14785;52.556;13.430;2022-10-19T07:43:54;101919.28;;;12.44;100.00
27294;BME280;14785;52.556;13.430;2022-10-19T07:46:24;101925.78;;;12.70;100.00
27294;BME280;14785;52.556;13.430;2022-10-19T07:48:50;101922.28;;;12.60;100.00
27294;BME280;14785;52.556;13.430;2022-10-19T07:51:17;101917.59;;;12.43;100.00
27294;BME280;14785;52.556;13.430;2022-10-19T07:53:43;101924.06;;;12.50;100.00
27294;BME280;14785;52.556;13.430;2022-10-19T07:56:17;101929.03;;;12.83;100.00
27294;BME280;14785;52.556;13.430;2022-10-19T07:58:42;101934.91;;;12.77;100.00
27294;BME280;14785;52.556;13.430;2022-10-19T08:01:11;101941.25;;;12.76;100.00
27294;BME280;14785;52.556;13.430;2022-10-19T08:03:38;101937.84;;;12.55;100.00
27294;BME280;14785;52.556;13.430;2022-10-19T08:06:06;101938.41;;;12.68;100.00
27294;BME280;14785;52.556;13.430;2022-10-19T08:08:32;101937.19;;;12.72;100.00
27294;BME280;14785;52.556;13.430;2022-10-19T08:11:12;101945.19;;;12.91;100.00
27294;BME280;14785;52.556;13.430;2022-10-19T08:13:38;101938.72;;;12.55;100.00
27294;BME280;14785;52.556;13.430;2022-10-19T08:16:04;101938.06;;;13.01;100.00
27294;BME280;14785;52.556;13.430;2022-10-19T08:18:30;101949.41;;;12.84;100.00
27294;BME280;14785;52.556;13.430;2022-10-19T08:20:55;101944.34;;;12.90;100.00
27294;BME280;14785;52.556;13.430;2022-10-19T08:23:21;101946.84;;;12.63;100.00
27294;BME280;14785;52.556;13.430;2022-10-19T08:25:56;101951.63;;;12.60;100.00
27294;BME280;14785;52.556;13.430;2022-10-19T08:28:21;101950.28;;;13.13;100.00
27294;BME280;14785;52.556;13.430;2022-10-19T08:30:46;101943.13;;;13.23;100.00
27294;BME280;14785;52.556;13.430;2022-10-19T08:33:12;101941.00;;;13.36;100.00
27294;BME280;14785;52.556;13.430;2022-10-19T08:35:39;101940.38;;;13.61;100.00
27294;BME280;14785;52.556;13.430;2022-10-19T08:38:04;101952.34;;;13.57;100.00
27294;BME280;14785;52.556;13.430;2022-10-19T08:40:29;101956.19;;;13.07;100.00
27294;BME280;14785;52.556;13.430;2022-10-19T08:43:10;101957.00;;;12.98;100.00
27294;BME280;14785;52.556;13.430;2022-10-19T08:45:46;101945.38;;;13.27;100.00
27294;BME280;14785;52.556;13.430;2022-10-19T08:48:32;101956.44;;;13.32;100.00
27294;BME280;14785;52.556;13.430;2022-10-19T08:50:59;101951.63;;;13.45;100.00
27294;BME280;14785;52.556;13.430;2022-10-19T09:01:38;101949.00;;;13.36;100.00
27294;BME280;14785;52.556;13.430;2022-10-19T09:09:13;101965.19;;;13.25;100.00
27294;BME280;14785;52.556;13.430;2022-10-19T09:11:42;101964.88;;;13.47;100.00
27294;BME280;14785;52.556;13.430;2022-10-19T09:14:30;101961.19;;;13.58;100.00
27294;BME280;14785;52.556;13.430;2022-10-19T09:17:00;101957.66;;;14.40;100.00
27294;BME280;14785;52.556;13.430;2022-10-19T09:19:27;101959.22;;;14.42;100.00
27294;BME280;14785;52.556;13.430;2022-10-19T09:22:04;101954.53;;;14.17;100.00
27294;BME280;14785;52.556;13.430;2022-10-19T09:24:41;101956.56;;;14.33;100.00
27294;BME280;14785;52.556;13.430;2022-10-19T09:27:17;101956.34;;;14.88;100.00
27294;BME280;14785;52.556;13.430;2022-10-19T09:29:58;101956.78;;;15.37;100.00
27294;BME280;14785;52.556;13.430;2022-10-19T09:32:35;101954.47;;;15.85;100.00
27294;BME280;14785;52.556;13.430;2022-10-19T09:35:07;101955.66;;;15.90;100.00
27294;BME280;14785;52.556;13.430;2022-10-19T09:37:46;101961.31;;;16.13;100.00
27294;BME280;14785;52.556;13.430;2022-10-19T09:40:21;101961.25;;;15.71;100.00
27294;BME280;14785;52.556;13.430;2022-10-19T09:42:47;101962.59;;;16.01;100.00
27294;BME280;14785;52.556;13.430;2022-10-19T09:48:36;101963.66;;;15.57;100.00
27294;BME280;14785;52.556;13.430;2022-10-19T09:51:11;101962.81;;;16.07;100.00
27294;BME280;14785;52.556;13.430;2022-10-19T09:53:36;101971.81;;;16.32;100.00
27294;BME280;14785;52.556;13.430;2022-10-19T09:56:05;101978.56;;;16.36;100.00
27294;BME280;14785;52.556;13.430;2022-10-19T09:58:32;101977.22;;;16.40;100.00
27294;BME280;14785;52.556;13.430;2022-10-19T10:00:58;101982.38;;;16.33;100.00
27294;BME280;14785;52.556;13.430;2022-10-19T10:06:07;101973.34;;;16.84;100.00
27294;BME280;14785;52.556;13.430;2022-10-19T10:08:36;101966.72;;;15.87;100.00
27294;BME280;14785;52.556;13.430;2022-10-19T10:13:28;101971.69;;;15.74;100.00
27294;BME280;14785;52.556;13.430;2022-10-19T10:15:59;101972.13;;;16.21;100.00
27294;BME280;14785;52.556;13.430;2022-10-19T10:18:26;101973.00;;;16.87;100.00
27294;BME280;14785;52.556;13.430;2022-10-19T10:21:23;101968.72;;;17.58;100.00
27294;BME280;14785;52.556;13.430;2022-10-19T10:24:09;101971.53;;;18.43;100.00
27294;BME280;14785;52.556;13.430;2022-10-19T10:26:57;101966.72;;;18.07;100.00
27294;BME280;14785;52.556;13.430;2022-10-19T10:29:30;101968.97;;;17.95;100.00
27294;BME280;14785;52.556;13.430;2022-10-19T10:31:59;101976.22;;;18.49;100.00
27294;BME280;14785;52.556;13.430;2022-10-19T10:34:36;101974.78;;;18.61;100.00
27294;BME280;14785;52.556;13.430;2022-10-19T10:37:04;101975.41;;;18.41;100.00
27294;BME280;14785;52.556;13.430;2022-10-19T10:39:31;101970.69;;;17.88;100.00
27294;BME280;14785;52.556;13.430;2022-10-19T10:42:09;101983.00;;;15.43;100.00
27294;BME280;14785;52.556;13.430;2022-10-19T10:44:37;101978.16;;;15.64;100.00
27294;BME280;14785;52.556;13.430;2022-10-19T10:47:12;101971.16;;;16.30;100.00
27294;BME280;14785;52.556;13.430;2022-10-19T10:49:39;101969.44;;;16.21;100.00
27294;BME280;14785;52.556;13.430;2022-10-19T10:52:10;101974.81;;;15.44;100.00
27294;BME280;14785;52.556;13.430;2022-10-19T10:54:37;101968.66;;;16.94;100.00
27294;BME280;14785;52.556;13.430;2022-10-19T10:57:12;101974.72;;;16.88;100.00
27294;BME280;14785;52.556;13.430;2022-10-19T11:02:34;101968.25;;;18.56;100.00
27294;BME280;14785;52.556;13.430;2022-10-19T11:07:52;101963.09;;;16.30;100.00
27294;BME280;14785;52.556;13.430;2022-10-19T11:10:21;101973.44;;;15.66;100.00
27294;BME280;14785;52.556;13.430;2022-10-19T11:12:55;101975.19;;;16.34;100.00
27294;BME280;14785;52.556;13.430;2022-10-19T11:15:27;101972.38;;;17.57;100.00
27294;BME280;14785;52.556;13.430;2022-10-19T11:18:13;101973.38;;;17.32;100.00
27294;BME280;14785;52.556;13.430;2022-10-19T11:20:46;101971.94;;;18.08;100.00
27294;BME280;14785;52.556;13.430;2022-10-19T11:23:25;101968.41;;;15.88;100.00
27294;BME280;14785;52.556;13.430;2022-10-19T11:29:01;101970.03;;;17.62;100.00
27294;BME280;14785;52.556;13.430;2022-10-19T11:31:43;101966.69;;;16.13;100.00
27294;BME280;14785;52.556;13.430;2022-10-19T11:37:06;101954.31;;;15.61;100.00
27294;BME280;14785;52.556;13.430;2022-10-19T11:45:34;101965.59;;;16.73;100.00
27294;BME280;14785;52.556;13.430;2022-10-19T11:53:19;101952.78;;;18.80;100.00
27294;BME280;14785;52.556;13.430;2022-10-19T11:58:57;101947.56;;;20.63;100.00
27294;BME280;14785;52.556;13.430;2022-10-19T12:01:36;101952.44;;;19.66;100.00
27294;BME280;14785;52.556;13.430;2022-10-19T12:06:57;101945.50;;;17.09;100.00
27294;BME280;14785;52.556;13.430;2022-10-19T12:09:41;101944.47;;;17.10;100.00
27294;BME280;14785;52.556;13.430;2022-10-19T12:12:23;101962.50;;;15.16;100.00
27294;BME280;14785;52.556;13.430;2022-10-19T12:14:54;101946.78;;;15.39;100.00
27294;BME280;14785;52.556;13.430;2022-10-19T12:17:27;101949.69;;;16.38;100.00
27294;BME280;14785;52.556;13.430;2022-10-19T12:19:57;101948.00;;;15.70;100.00
27294;BME280;14785;52.556;13.430;2022-10-19T12:22:27;101944.41;;;15.87;100.00
27294;BME280;14785;52.556;13.430;2022-10-19T12:24:54;101947.47;;;15.41;100.00
27294;BME280;14785;52.556;13.430;2022-10-19T12:27:34;101943.16;;;15.73;100.00
27294;BME280;14785;52.556;13.430;2022-10-19T12:30:22;101939.63;;;15.47;100.00
27294;BME280;14785;52.556;13.430;2022-10-19T12:33:11;101939.34;;;15.84;100.00
27294;BME280;14785;52.556;13.430;2022-10-19T12:35:54;101927.84;;;17.14;100.00
27294;BME280;14785;52.556;13.430;2022-10-19T12:41:29;101930.72;;;17.21;100.00
27294;BME280;14785;52.556;13.430;2022-10-19T12:46:34;101931.44;;;15.74;100.00
27294;BME280;14785;52.556;13.430;2022-10-19T12:51:59;101929.63;;;17.86;100.00
27294;BME280;14785;52.556;13.430;2022-10-19T12:54:29;101930.66;;;17.77;100.00
27294;BME280;14785;52.556;13.430;2022-10-19T12:56:57;101923.06;;;16.11;100.00
27294;BME280;14785;52.556;13.430;2022-10-19T12:59:34;101929.53;;;16.00;100.00
27294;BME280;14785;52.556;13.430;2022-10-19T13:02:03;101927.22;;;16.39;100.00
27294;BME280;14785;52.556;13.430;2022-10-19T13:04:32;101929.09;;;16.13;100.00
27294;BME280;14785;52.556;13.430;2022-10-19T13:07:03;101923.97;;;17.25;100.00
27294;BME280;14785;52.556;13.430;2022-10-19T13:09:34;101919.69;;;17.87;100.00
27294;BME280;14785;52.556;13.430;2022-10-19T13:14:54;101920.66;;;18.93;100.00
27294;BME280;14785;52.556;13.430;2022-10-19T13:22:39;101913.34;;;16.67;100.00
27294;BME280;14785;52.556;13.430;2022-10-19T13:25:21;101916.56;;;16.87;100.00
27294;BME280;14785;52.556;13.430;2022-10-19T13:27:49;101915.91;;;17.25;100.00
27294;BME280;14785;52.556;13.430;2022-10-19T13:32:59;101906.69;;;16.38;100.00
27294;BME280;14785;52.556;13.430;2022-10-19T13:40:35;101901.22;;;18.14;100.00
27294;BME280;14785;52.556;13.430;2022-10-19T13:43:02;101892.38;;;17.27;100.00
27294;BME280;14785;52.556;13.430;2022-10-19T13:45:27;101896.38;;;17.63;100.00
27294;BME280;14785;52.556;13.430;2022-10-19T13:47:59;101897.59;;;17.99;100.00
27294;BME280;14785;52.556;13.430;2022-10-19T13:50:35;101890.94;;;18.26;100.00
27294;BME280;14785;52.556;13.430;2022-10-19T13:53:06;101877.91;;;17.44;100.00
27294;BME280;14785;52.556;13.430;2022-10-19T13:55:54;101894.06;;;17.28;100.00
27294;BME280;14785;52.556;13.430;2022-10-19T13:58:41;101898.34;;;17.77;100.00
27294;BME280;14785;52.556;13.430;2022-10-19T14:01:41;101895.91;;;17.03;100.00
27294;BME280;14785;52.556;13.430;2022-10-19T14:04:29;101887.28;;;16.02;100.00
27294;BME280;14785;52.556;13.430;2022-10-19T14:07:09;101894.41;;;17.33;100.00
27294;BME280;14785;52.556;13.430;2022-10-19T14:10:03;101881.97;;;17.16;100.00
27294;BME280;14785;52.556;13.430;2022-10-19T14:12:30;101887.69;;;17.45;100.00
27294;BME280;14785;52.556;13.430;2022-10-19T14:14:58;101884.31;;;17.27;100.00
27294;BME280;14785;52.556;13.430;2022-10-19T14:17:26;101881.25;;;16.50;100.00
27294;BME280;14785;52.556;13.430;2022-10-19T14:19:56;101871.19;;;17.32;100.00